createdAt,value
2017-06-17T00:00:42.746Z,4.20
2017-06-17T00:03:10.987Z,4.30
2017-06-17T00:05:38.447Z,3.87
2017-06-17T00:08:05.914Z,4.33
2017-06-17T00:10:33.388Z,3.87
2017-06-17T00:13:01.618Z,3.53
2017-06-17T00:15:29.106Z,4.57
2017-06-17T00:17:56.564Z,3.90
2017-06-17T00:20:24.072Z,3.50
2017-06-17T00:22:51.551Z,3.80
2017-06-17T00:25:19.032Z,3.90
2017-06-17T00:27:46.504Z,3.80
2017-06-17T00:30:13.972Z,3.90
2017-06-17T00:32:42.207Z,3.57
2017-06-17T00:35:09.731Z,3.30
2017-06-17T00:37:37.195Z,3.50
2017-06-17T00:40:04.659Z,4.00
2017-06-17T00:42:32.138Z,3.93
2017-06-17T00:44:59.600Z,3.50
2017-06-17T00:47:27.093Z,3.90
2017-06-17T00:49:55.328Z,4.00
2017-06-17T00:52:22.815Z,3.20
2017-06-17T00:54:50.288Z,3.83
2017-06-17T00:57:18.541Z,3.70
2017-06-17T00:59:46.030Z,3.33
2017-06-17T01:02:14.288Z,3.30
2017-06-17T01:04:42.539Z,2.97
2017-06-17T01:07:10.970Z,3.43
2017-06-17T01:09:38.440Z,4.03
2017-06-17T01:12:05.939Z,3.83
2017-06-17T01:14:33.408Z,2.80
2017-06-17T01:17:00.892Z,3.00
2017-06-17T01:19:28.373Z,3.40
2017-06-17T01:21:55.840Z,4.03
2017-06-17T01:24:23.308Z,3.13
2017-06-17T01:26:50.783Z,3.33
2017-06-17T01:29:18.261Z,3.53
2017-06-17T01:31:46.511Z,3.10
2017-06-17T01:34:14.007Z,3.37
2017-06-17T01:36:42.244Z,3.30
2017-06-17T01:39:09.723Z,3.43
2017-06-17T01:41:37.192Z,3.20
2017-06-17T01:44:04.672Z,3.13
2017-06-17T01:46:32.151Z,2.90
2017-06-17T01:48:59.620Z,3.60
2017-06-17T01:51:27.100Z,3.40
2017-06-17T01:53:54.578Z,3.17
2017-06-17T01:56:22.825Z,3.50
2017-06-17T01:58:50.295Z,3.70
2017-06-17T02:01:17.766Z,4.77
2017-06-17T02:03:45.251Z,3.07
2017-06-17T02:06:12.739Z,3.90
2017-06-17T02:08:40.200Z,2.80
2017-06-17T02:11:07.688Z,2.73
2017-06-17T02:13:35.257Z,3.07
2017-06-17T02:16:03.513Z,3.27
2017-06-17T02:18:30.988Z,3.20
2017-06-17T02:21:04.971Z,2.83
2017-06-17T02:23:45.725Z,2.83
2017-06-17T02:26:13.216Z,3.17
2017-06-17T02:28:40.709Z,2.80
2017-06-17T02:31:08.173Z,3.10
2017-06-17T02:33:35.652Z,3.53
2017-06-17T02:36:03.138Z,3.40
2017-06-17T02:38:30.627Z,3.40
2017-06-17T02:40:58.858Z,3.13
2017-06-17T02:43:26.352Z,3.60
2017-06-17T02:45:54.601Z,3.07
2017-06-17T02:48:22.101Z,3.80
2017-06-17T02:50:50.327Z,3.03
2017-06-17T02:53:17.804Z,3.50
2017-06-17T02:55:45.280Z,3.07
2017-06-17T02:58:13.528Z,3.47
2017-06-17T03:00:40.994Z,3.97
2017-06-17T03:03:08.503Z,3.30
2017-06-17T03:05:35.974Z,3.50
2017-06-17T03:08:03.462Z,3.37
2017-06-17T03:10:30.947Z,3.20
2017-06-17T03:12:59.191Z,3.80
2017-06-17T03:15:26.685Z,3.00
2017-06-17T03:17:54.940Z,2.80
2017-06-17T03:20:22.424Z,3.13
2017-06-17T03:22:49.890Z,3.20
2017-06-17T03:25:17.368Z,2.87
2017-06-17T03:27:44.845Z,2.63
2017-06-17T03:30:12.336Z,3.13
2017-06-17T03:32:40.584Z,3.10
2017-06-17T03:35:08.211Z,3.00
2017-06-17T03:37:35.739Z,2.97
2017-06-17T03:40:03.991Z,3.00
2017-06-17T03:42:31.472Z,2.77
2017-06-17T03:44:59.713Z,3.00
2017-06-17T03:47:27.195Z,3.60
2017-06-17T03:49:55.421Z,2.90
2017-06-17T03:52:22.907Z,4.53
2017-06-17T03:54:50.376Z,3.50
2017-06-17T03:57:17.859Z,2.90
2017-06-17T03:59:46.086Z,2.90
2017-06-17T04:02:13.560Z,3.20
2017-06-17T04:04:41.029Z,3.30
2017-06-17T04:07:09.302Z,3.37
2017-06-17T04:09:36.766Z,3.43
2017-06-17T04:12:05.012Z,3.40
2017-06-17T04:14:32.479Z,3.30
2017-06-17T04:16:59.980Z,3.33
2017-06-17T04:19:27.473Z,3.40
2017-06-17T04:21:54.937Z,3.30
2017-06-17T04:24:22.421Z,3.40
2017-06-17T04:26:49.898Z,3.60
2017-06-17T04:29:18.157Z,3.20
2017-06-17T04:31:45.629Z,3.50
2017-06-17T04:34:13.894Z,3.43
2017-06-17T04:36:41.368Z,4.07
2017-06-17T04:39:09.630Z,3.10
2017-06-17T04:41:37.107Z,3.33
2017-06-17T04:44:05.359Z,4.07
2017-06-17T04:46:32.839Z,3.40
2017-06-17T04:49:01.074Z,3.67
2017-06-17T04:51:28.546Z,3.27
2017-06-17T04:53:56.014Z,3.50
2017-06-17T04:56:24.276Z,3.43
2017-06-17T04:58:51.763Z,3.40
2017-06-17T05:01:19.268Z,4.10
2017-06-17T05:03:46.774Z,3.80
2017-06-17T05:06:14.307Z,4.10
2017-06-17T05:08:41.775Z,3.70
2017-06-17T05:11:09.260Z,3.63
2017-06-17T05:13:36.769Z,4.20
2017-06-17T05:16:04.231Z,3.67
2017-06-17T05:18:31.690Z,3.83
2017-06-17T05:20:59.187Z,3.23
2017-06-17T05:23:27.425Z,3.80
2017-06-17T05:25:54.897Z,3.90
2017-06-17T05:28:22.391Z,3.30
2017-06-17T05:30:49.860Z,3.47
2017-06-17T05:33:17.381Z,3.90
2017-06-17T05:35:45.640Z,4.20
2017-06-17T05:38:13.118Z,4.50
2017-06-17T05:40:41.349Z,4.60
2017-06-17T05:43:08.847Z,3.67
2017-06-17T05:45:37.086Z,4.27
2017-06-17T05:48:04.570Z,4.17
2017-06-17T05:50:32.064Z,3.90
2017-06-17T05:52:59.552Z,4.60
2017-06-17T05:55:27.022Z,4.57
2017-06-17T05:57:54.541Z,4.17
2017-06-17T06:00:22.017Z,4.53
2017-06-17T06:02:49.497Z,4.50
2017-06-17T06:05:17.390Z,4.93
2017-06-17T06:07:44.883Z,4.00
2017-06-17T06:10:12.357Z,4.40
2017-06-17T06:12:39.861Z,4.03
2017-06-17T06:15:07.405Z,3.90
2017-06-17T06:17:34.876Z,4.27
2017-06-17T06:20:02.388Z,4.80
2017-06-17T06:22:29.876Z,5.30
2017-06-17T06:24:57.347Z,5.27
2017-06-17T06:27:24.875Z,4.40
2017-06-17T06:29:52.346Z,5.63
2017-06-17T06:32:19.826Z,5.27
2017-06-17T06:34:47.389Z,4.90
2017-06-17T06:37:14.873Z,5.53
2017-06-17T06:39:42.348Z,4.50
2017-06-17T06:42:09.860Z,3.37
2017-06-17T06:44:37.335Z,4.17
2017-06-17T06:47:05.567Z,4.00
2017-06-17T06:49:33.082Z,4.37
2017-06-17T06:52:00.553Z,3.90
2017-06-17T06:54:28.015Z,4.20
2017-06-17T06:56:55.513Z,3.80
2017-06-17T06:59:22.984Z,3.83
2017-06-17T07:01:50.451Z,5.00
2017-06-17T07:04:18.722Z,3.60
2017-06-17T07:06:46.955Z,5.23
2017-06-17T07:09:14.433Z,3.80
2017-06-17T07:11:41.918Z,3.90
2017-06-17T07:14:10.150Z,3.73
2017-06-17T07:16:37.636Z,3.50
2017-06-17T07:19:05.114Z,4.63
2017-06-17T07:21:33.375Z,4.30
2017-06-17T07:24:00.839Z,4.47
2017-06-17T07:26:29.079Z,3.30
2017-06-17T07:28:56.556Z,3.10
2017-06-17T07:31:24.039Z,3.83
2017-06-17T07:33:52.287Z,3.60
2017-06-17T07:36:19.777Z,3.57
2017-06-17T07:38:47.275Z,3.47
2017-06-17T07:41:14.753Z,3.70
2017-06-17T07:43:42.241Z,3.17
2017-06-17T07:46:10.486Z,3.80
2017-06-17T07:48:37.962Z,3.77
2017-06-17T07:51:05.435Z,3.33
2017-06-17T07:53:33.683Z,3.20
2017-06-17T07:56:01.157Z,3.17
2017-06-17T07:58:29.407Z,3.07
2017-06-17T08:00:56.882Z,2.90
2017-06-17T08:03:24.355Z,4.23
2017-06-17T08:05:52.605Z,3.40
2017-06-17T08:08:20.084Z,3.50
2017-06-17T08:10:48.354Z,3.30
2017-06-17T08:13:15.834Z,3.17
2017-06-17T08:15:43.329Z,3.00
2017-06-17T08:18:10.809Z,3.63
2017-06-17T08:20:38.311Z,2.70
2017-06-17T08:23:05.786Z,2.70
2017-06-17T08:25:33.247Z,2.97
2017-06-17T08:28:00.748Z,2.77
2017-06-17T08:30:28.204Z,2.53
2017-06-17T08:32:55.683Z,2.23
2017-06-17T08:35:24.094Z,2.40
2017-06-17T08:37:51.574Z,2.40
2017-06-17T08:40:19.031Z,2.77
2017-06-17T08:42:46.537Z,2.47
2017-06-17T08:45:14.068Z,2.70
2017-06-17T08:47:41.573Z,3.20
2017-06-17T08:50:09.045Z,3.13
2017-06-17T08:52:36.519Z,2.57
2017-06-17T08:55:04.015Z,2.60
2017-06-17T08:57:31.469Z,2.17
2017-06-17T08:59:58.951Z,2.13
2017-06-17T09:02:26.425Z,3.17
2017-06-17T09:04:53.900Z,1.90
2017-06-17T09:07:21.372Z,1.93
2017-06-17T09:09:48.846Z,2.43
2017-06-17T09:12:16.321Z,2.57
2017-06-17T09:14:44.571Z,2.40
2017-06-17T09:17:12.046Z,1.73
2017-06-17T09:19:39.545Z,2.30
2017-06-17T09:22:07.008Z,1.93
2017-06-17T09:24:34.471Z,2.33
2017-06-17T09:27:01.945Z,2.00
2017-06-17T09:29:29.418Z,2.30
2017-06-17T09:31:56.901Z,1.90
2017-06-17T09:34:25.139Z,1.73
2017-06-17T09:36:52.640Z,2.00
2017-06-17T09:39:20.883Z,2.33
2017-06-17T09:41:48.355Z,2.03
2017-06-17T09:44:15.842Z,1.93
2017-06-17T09:46:44.096Z,2.17
2017-06-17T09:49:11.571Z,2.20
2017-06-17T09:51:40.085Z,2.00
2017-06-17T09:54:07.575Z,2.40
2017-06-17T09:56:35.058Z,2.53
2017-06-17T09:59:03.305Z,2.07
2017-06-17T10:01:30.769Z,1.90
2017-06-17T10:03:58.254Z,4.43
2017-06-17T10:06:26.489Z,2.00
2017-06-17T10:08:53.983Z,2.27
2017-06-17T10:11:22.225Z,2.17
2017-06-17T10:13:49.709Z,2.00
2017-06-17T10:16:17.186Z,2.60
2017-06-17T10:18:45.435Z,2.63
2017-06-17T10:21:12.917Z,2.60
2017-06-17T10:23:41.156Z,2.67
2017-06-17T10:26:08.636Z,2.67
2017-06-17T10:28:36.109Z,2.73
2017-06-17T10:31:04.360Z,2.50
2017-06-17T10:33:31.824Z,2.93
2017-06-17T10:35:59.300Z,2.83
2017-06-17T10:38:27.540Z,2.63
2017-06-17T10:40:55.017Z,2.50
2017-06-17T10:43:23.251Z,2.37
2017-06-17T10:45:50.761Z,2.73
2017-06-17T10:48:19.012Z,2.40
2017-06-17T10:50:46.481Z,2.30
2017-06-17T10:53:13.971Z,2.33
2017-06-17T10:55:41.432Z,2.50
2017-06-17T10:58:08.911Z,2.20
2017-06-17T11:00:36.396Z,1.87
2017-06-17T11:03:03.884Z,1.60
2017-06-17T11:05:32.107Z,2.30
2017-06-17T11:07:59.592Z,2.37
2017-06-17T11:10:27.997Z,2.10
2017-06-17T11:12:56.380Z,2.03
2017-06-17T11:15:24.634Z,1.90
2017-06-17T11:17:52.104Z,2.37
2017-06-17T11:20:20.357Z,1.70
2017-06-17T11:22:47.813Z,2.63
2017-06-17T11:25:15.303Z,2.17
2017-06-17T11:27:43.539Z,2.23
2017-06-17T11:30:11.024Z,1.90
2017-06-17T11:32:39.256Z,2.37
2017-06-17T11:35:07.295Z,1.93
2017-06-17T11:37:34.780Z,1.90
2017-06-17T11:40:02.271Z,1.80
2017-06-17T11:42:29.731Z,1.50
2017-06-17T11:44:57.221Z,1.87
2017-06-17T11:47:24.721Z,2.07
2017-06-17T11:49:52.185Z,1.70
2017-06-17T11:52:19.677Z,1.80
2017-06-17T11:54:47.139Z,1.40
2017-06-17T11:57:15.395Z,1.60
2017-06-17T11:59:42.882Z,1.50
2017-06-17T12:02:10.364Z,1.30
2017-06-17T12:04:37.844Z,1.50
2017-06-17T12:07:05.325Z,1.37
2017-06-17T12:09:32.796Z,1.63
2017-06-17T12:12:01.079Z,1.40
2017-06-17T12:14:29.304Z,1.67
2017-06-17T12:16:56.782Z,1.60
2017-06-17T12:19:24.259Z,1.73
2017-06-17T12:21:51.731Z,1.37
2017-06-17T12:24:19.986Z,1.50
2017-06-17T12:26:47.452Z,1.73
2017-06-17T12:29:16.507Z,1.50
2017-06-17T12:31:43.987Z,1.53
2017-06-17T12:34:11.460Z,1.60
2017-06-17T12:36:39.572Z,1.60
2017-06-17T12:39:07.058Z,1.90
2017-06-17T12:41:34.540Z,1.60
2017-06-17T12:44:02.022Z,1.63
2017-06-17T12:46:30.256Z,1.80
2017-06-17T12:48:58.089Z,2.07
2017-06-17T12:51:25.564Z,1.63
2017-06-17T12:53:53.033Z,2.00
2017-06-17T12:56:20.523Z,1.70
2017-06-17T12:58:54.338Z,2.13
2017-06-17T13:01:22.587Z,1.70
2017-06-17T13:03:50.073Z,1.60
2017-06-17T13:06:18.335Z,1.73
2017-06-17T13:08:45.794Z,1.73
2017-06-17T13:11:14.047Z,1.60
2017-06-17T13:13:41.528Z,1.80
2017-06-17T13:16:09.787Z,1.63
2017-06-17T13:18:37.252Z,2.17
2017-06-17T13:21:04.728Z,1.77
2017-06-17T13:23:33.035Z,1.80
2017-06-17T13:26:00.508Z,1.93
2017-06-17T13:28:27.988Z,1.63
2017-06-17T13:30:55.448Z,1.83
2017-06-17T13:33:22.929Z,1.83
2017-06-17T13:35:51.178Z,1.90
2017-06-17T13:38:18.661Z,1.50
2017-06-17T13:40:46.927Z,1.70
2017-06-17T13:43:14.420Z,2.13
2017-06-17T13:45:41.889Z,1.73
2017-06-17T13:48:09.385Z,1.60
2017-06-17T13:50:36.852Z,1.97
2017-06-17T13:53:04.336Z,1.50
2017-06-17T13:55:31.835Z,1.60
2017-06-17T13:57:59.301Z,2.00
2017-06-17T14:00:26.795Z,1.60
2017-06-17T14:02:55.051Z,1.70
2017-06-17T14:05:22.652Z,1.50
2017-06-17T14:07:50.123Z,1.50
2017-06-17T14:10:17.588Z,1.50
2017-06-17T14:12:45.060Z,1.50
2017-06-17T14:15:12.535Z,1.50
2017-06-17T14:17:40.007Z,1.50
2017-06-17T14:20:07.506Z,1.57
2017-06-17T14:22:34.987Z,1.67
2017-06-17T14:25:02.499Z,1.37
2017-06-17T14:27:30.734Z,1.67
2017-06-17T14:29:58.228Z,1.70
2017-06-17T14:32:26.477Z,1.40
2017-06-17T14:34:53.944Z,1.47
2017-06-17T14:37:21.425Z,1.50
2017-06-17T14:39:49.646Z,1.60
2017-06-17T14:42:17.128Z,1.70
2017-06-17T14:44:44.605Z,1.93
2017-06-17T14:47:12.087Z,1.60
2017-06-17T14:49:47.666Z,1.50
2017-06-17T14:52:15.163Z,1.20
2017-06-17T14:54:42.623Z,1.30
2017-06-17T14:57:10.094Z,1.50
2017-06-17T14:59:38.370Z,1.50
2017-06-17T15:02:06.591Z,1.30
2017-06-17T15:04:34.068Z,1.60
2017-06-17T15:07:01.550Z,1.50
2017-06-17T15:09:29.025Z,1.50
2017-06-17T15:11:57.256Z,1.50
2017-06-17T15:14:24.743Z,2.03
2017-06-17T15:16:52.217Z,1.90
2017-06-17T15:19:20.474Z,1.63
2017-06-17T15:21:47.941Z,1.60
2017-06-17T15:24:15.421Z,1.60
2017-06-17T15:26:42.902Z,1.30
2017-06-17T15:29:10.373Z,2.13
2017-06-17T15:31:37.872Z,1.60
2017-06-17T15:34:06.095Z,1.50
2017-06-17T15:36:33.580Z,1.30
2017-06-17T15:39:01.044Z,1.63
2017-06-17T15:41:28.523Z,1.57
2017-06-17T15:43:56.756Z,1.70
2017-06-17T15:46:24.247Z,1.53
2017-06-17T15:48:52.495Z,1.70
2017-06-17T15:51:19.961Z,1.97
2017-06-17T15:53:47.438Z,1.60
2017-06-17T15:56:14.924Z,1.77
2017-06-17T15:58:42.404Z,1.73
2017-06-17T16:01:09.883Z,1.90
2017-06-17T16:03:37.364Z,2.53
2017-06-17T16:06:04.841Z,2.00
2017-06-17T16:08:33.101Z,2.10
2017-06-17T16:11:00.572Z,2.33
2017-06-17T16:13:28.844Z,2.70
2017-06-17T16:15:57.076Z,1.97
2017-06-17T16:18:24.537Z,1.87
2017-06-17T16:20:52.016Z,1.87
2017-06-17T16:23:19.495Z,2.70
2017-06-17T16:25:47.749Z,1.70
2017-06-17T16:28:15.212Z,2.07
2017-06-17T16:30:43.733Z,2.00
2017-06-17T16:33:11.222Z,2.13
2017-06-17T16:35:38.716Z,2.53
2017-06-17T16:38:06.184Z,2.07
2017-06-17T16:40:34.415Z,2.67
2017-06-17T16:43:01.901Z,2.00
2017-06-17T16:45:29.480Z,2.13
2017-06-17T16:47:57.728Z,2.27
2017-06-17T16:50:25.210Z,1.90
2017-06-17T16:52:53.465Z,2.33
2017-06-17T16:55:20.915Z,1.90
2017-06-17T16:57:48.400Z,2.07
2017-06-17T17:00:15.861Z,2.00
2017-06-17T17:02:44.092Z,2.00
2017-06-17T17:05:11.569Z,2.00
2017-06-17T17:07:39.057Z,2.10
2017-06-17T17:10:06.534Z,2.07
2017-06-17T17:12:34.005Z,2.40
2017-06-17T17:15:01.493Z,2.20
2017-06-17T17:17:28.972Z,2.47
2017-06-17T17:19:57.206Z,2.33
2017-06-17T17:22:24.671Z,2.90
2017-06-17T17:24:52.165Z,2.13
2017-06-17T17:27:20.405Z,2.40
2017-06-17T17:29:47.872Z,2.73
2017-06-17T17:32:15.341Z,3.13
2017-06-17T17:34:42.844Z,2.73
2017-06-17T17:37:10.328Z,2.40
2017-06-17T17:39:37.825Z,3.00
2017-06-17T17:42:05.299Z,2.27
2017-06-17T17:44:32.779Z,3.23
2017-06-17T17:47:00.250Z,2.87
2017-06-17T17:49:27.758Z,2.67
2017-06-17T17:51:55.983Z,3.00
2017-06-17T17:54:23.456Z,2.90
2017-06-17T17:56:50.942Z,3.00
2017-06-17T17:59:18.408Z,2.63
2017-06-17T18:01:45.896Z,2.40
2017-06-17T18:04:13.388Z,2.70
2017-06-17T18:06:40.898Z,2.97
2017-06-17T18:09:08.362Z,2.70
2017-06-17T18:11:35.847Z,3.00
2017-06-17T18:14:03.308Z,2.63
2017-06-17T18:16:30.799Z,2.60
2017-06-17T18:18:58.278Z,3.90
2017-06-17T18:21:26.569Z,3.53
2017-06-17T18:23:54.029Z,3.07
2017-06-17T18:26:21.492Z,3.13
2017-06-17T18:28:48.985Z,3.10
2017-06-17T18:31:16.466Z,2.90
2017-06-17T18:33:43.966Z,2.87
2017-06-17T18:36:11.447Z,2.87
2017-06-17T18:38:38.940Z,3.43
2017-06-17T18:41:06.417Z,3.27
2017-06-17T18:43:34.666Z,2.83
2017-06-17T18:46:02.124Z,2.70
2017-06-17T18:48:29.634Z,3.37
2017-06-17T18:50:57.112Z,3.40
2017-06-17T18:53:24.596Z,2.63
2017-06-17T18:55:52.077Z,3.07
2017-06-17T18:58:20.329Z,2.73
2017-06-17T19:00:47.819Z,3.23
2017-06-17T19:03:16.063Z,3.43
2017-06-17T19:05:43.548Z,3.57
2017-06-17T19:08:11.783Z,2.73
2017-06-17T19:10:39.255Z,3.10
2017-06-17T19:13:06.751Z,3.90
2017-06-17T19:15:34.243Z,3.37
2017-06-17T19:18:01.714Z,3.37
2017-06-17T19:20:29.802Z,3.30
2017-06-17T19:22:57.292Z,3.50
2017-06-17T19:25:24.763Z,3.40
2017-06-17T19:27:52.253Z,3.87
2017-06-17T19:30:19.717Z,3.53
2017-06-17T19:32:47.220Z,3.40
2017-06-17T19:35:15.492Z,3.40
2017-06-17T19:37:43.741Z,3.10
2017-06-17T19:40:11.202Z,3.17
2017-06-17T19:42:38.683Z,3.13
2017-06-17T19:45:06.920Z,3.60
2017-06-17T19:47:34.433Z,3.00
2017-06-17T19:50:01.916Z,3.30
2017-06-17T19:55:23.279Z,3.57
2017-06-17T19:57:50.767Z,3.10
2017-06-17T20:00:19.008Z,3.17
2017-06-17T20:02:46.516Z,3.80
2017-06-17T20:05:14.035Z,3.67
2017-06-17T20:07:41.515Z,4.10
2017-06-17T20:10:09.756Z,4.10
2017-06-17T20:12:37.225Z,3.43
2017-06-17T20:15:04.685Z,3.90
2017-06-17T20:17:32.161Z,3.73
2017-06-17T20:20:00.413Z,3.60
2017-06-17T20:22:33.568Z,3.23
2017-06-17T20:25:01.067Z,4.30
2017-06-17T20:27:28.547Z,4.30
2017-06-17T20:29:56.804Z,4.37
2017-06-17T20:32:25.055Z,4.10
2017-06-17T20:34:52.559Z,4.17
2017-06-17T20:37:20.042Z,4.00
2017-06-17T20:39:47.510Z,4.20
2017-06-17T20:42:14.987Z,3.87
2017-06-17T20:44:42.469Z,4.27
2017-06-17T20:47:10.719Z,4.20
2017-06-17T20:49:38.186Z,4.40
2017-06-17T20:52:05.663Z,3.63
2017-06-17T20:54:33.896Z,4.30
2017-06-17T20:57:01.499Z,4.27
2017-06-17T20:59:29.732Z,3.70
2017-06-17T21:01:57.212Z,4.40
2017-06-17T21:04:24.715Z,3.73
2017-06-17T21:06:52.958Z,3.60
2017-06-17T21:09:20.426Z,3.77
2017-06-17T21:11:48.675Z,3.60
2017-06-17T21:14:16.220Z,4.07
2017-06-17T21:16:43.689Z,4.50
2017-06-17T21:19:11.160Z,3.93
2017-06-17T21:21:38.648Z,4.30
2017-06-17T21:24:07.085Z,3.60
2017-06-17T21:26:34.552Z,4.20
2017-06-17T21:29:02.048Z,4.47
2017-06-17T21:31:29.520Z,13.03
2017-06-17T21:33:57.016Z,4.00
2017-06-17T21:36:24.487Z,4.30
2017-06-17T21:38:51.985Z,4.20
2017-06-17T21:41:19.466Z,4.77
2017-06-17T21:43:46.976Z,5.70
2017-06-17T21:46:15.224Z,4.40
2017-06-17T21:48:42.692Z,3.80
2017-06-17T21:51:10.174Z,4.60
2017-06-17T21:53:38.399Z,4.57
2017-06-17T21:56:05.871Z,4.60
2017-06-17T21:58:33.349Z,4.17
2017-06-17T22:01:01.612Z,4.63
2017-06-17T22:03:29.065Z,5.37
2017-06-17T22:05:56.546Z,4.33
2017-06-17T22:08:24.777Z,4.80
2017-06-17T22:10:52.252Z,5.17
2017-06-17T22:13:19.710Z,5.07
2017-06-17T22:15:47.193Z,5.90
2017-06-17T22:18:15.430Z,5.10
2017-06-17T22:20:42.903Z,5.23
2017-06-17T22:23:10.385Z,5.70
2017-06-17T22:25:38.617Z,5.13
2017-06-17T22:28:06.110Z,6.27
2017-06-17T22:30:33.589Z,5.40
2017-06-17T22:33:01.837Z,4.60
2017-06-17T22:35:29.304Z,5.50
2017-06-17T22:37:56.795Z,4.93
2017-06-17T22:40:24.259Z,5.50
2017-06-17T22:42:51.744Z,4.97
2017-06-17T22:45:19.205Z,6.63
2017-06-17T22:47:46.683Z,5.77
2017-06-17T22:50:14.205Z,6.23
2017-06-17T22:52:41.679Z,5.47
2017-06-17T22:55:09.152Z,6.90
2017-06-17T22:57:36.625Z,6.90
2017-06-17T23:00:04.892Z,6.67
2017-06-17T23:02:32.358Z,6.93
2017-06-17T23:04:59.846Z,8.00
2017-06-17T23:07:27.323Z,8.00
2017-06-17T23:09:54.801Z,6.63
2017-06-17T23:12:22.271Z,6.00
2017-06-17T23:14:49.750Z,6.80
2017-06-17T23:17:17.983Z,6.07
2017-06-17T23:19:45.475Z,6.90
2017-06-17T23:22:12.948Z,6.50
2017-06-17T23:24:40.404Z,6.43
2017-06-17T23:27:08.661Z,5.90
2017-06-17T23:29:36.126Z,6.37
2017-06-17T23:32:03.600Z,5.50
2017-06-17T23:34:31.846Z,6.80
2017-06-17T23:36:59.328Z,6.27
2017-06-17T23:39:27.559Z,6.07
2017-06-17T23:41:55.067Z,6.20
2017-06-17T23:44:23.303Z,6.70
2017-06-17T23:46:50.788Z,6.40
2017-06-17T23:49:19.012Z,7.40
2017-06-17T23:51:46.484Z,6.50
2017-06-17T23:54:13.973Z,7.10
2017-06-17T23:56:41.436Z,6.97
2017-06-17T23:59:09.681Z,6.80
